Terminal Aerodrome Forecast
Issued by NWS Cleveland, OH

Home | Current Version | Previous Version | Graphics & Text | Print | Product List | Glossary Off
Versions: 1 2 3 4 5 6 7 8 9 10 11 12 13 14 15 16

000
FTUS41 KCLE 031739
TAFERI
TAF
KERI 031739Z 0318/0418 03010KT P6SM SCT250
     FM040200 VRB04KT P6SM SCT030 BKN180
     FM041400 35006KT P6SM SCT030 BKN200=

USA.gov is the U.S. government's official web portal to all federal, state and local government web resources and services.